createdAt,value
2019-04-01T00:02:22.720Z,7.70
2019-04-01T00:04:53.374Z,7.70
2019-04-01T00:07:24.034Z,7.70
2019-04-01T00:09:54.693Z,7.60
2019-04-01T00:12:26.998Z,7.60
2019-04-01T00:14:57.929Z,7.50
2019-04-01T00:17:28.582Z,7.50
2019-04-01T00:19:59.542Z,7.50
2019-04-01T00:22:30.307Z,7.50
2019-04-01T00:25:00.956Z,7.50
2019-04-01T00:27:31.750Z,7.40
2019-04-01T00:30:02.427Z,7.40
2019-04-01T00:32:33.114Z,7.40
2019-04-01T00:35:03.631Z,7.40
2019-04-01T00:37:34.168Z,7.40
2019-04-01T00:40:04.750Z,7.30
2019-04-01T00:42:43.170Z,7.30
2019-04-01T00:45:16.784Z,7.30
2019-04-01T00:47:47.470Z,7.20
2019-04-01T00:50:18.195Z,7.20
2019-04-01T00:52:48.792Z,7.20
2019-04-01T00:55:19.365Z,7.20
2019-04-01T00:57:50.051Z,7.20
2019-04-01T01:00:20.788Z,7.20
2019-04-01T01:02:51.472Z,7.20
2019-04-01T01:05:22.215Z,7.10
2019-04-01T01:07:52.870Z,7.10
2019-04-01T01:10:23.429Z,7.10
2019-04-01T01:12:54.078Z,7.10
2019-04-01T01:15:26.034Z,7.10
2019-04-01T01:17:56.610Z,7.10
2019-04-01T01:20:27.178Z,7.00
2019-04-01T01:22:58.092Z,7.00
2019-04-01T01:25:28.945Z,7.00
2019-04-01T01:28:00.043Z,7.00
2019-04-01T01:30:31.865Z,7.00
2019-04-01T01:33:03.199Z,7.00
2019-04-01T01:35:34.537Z,6.90
2019-04-01T01:38:05.457Z,6.90
2019-04-01T01:40:36.081Z,6.90
2019-04-01T01:43:07.083Z,6.90
2019-04-01T01:45:37.695Z,6.90
2019-04-01T01:48:08.305Z,6.90
2019-04-01T01:50:39.019Z,6.80
2019-04-01T01:53:09.663Z,6.80
2019-04-01T01:55:40.232Z,6.80
2019-04-01T01:58:10.786Z,6.80
2019-04-01T02:00:42.206Z,6.80
2019-04-01T02:03:14.468Z,6.80
2019-04-01T02:05:44.997Z,6.80
2019-04-01T02:08:15.698Z,6.80
2019-04-01T02:10:46.848Z,6.80
2019-04-01T02:13:20.081Z,6.80
2019-04-01T02:15:50.112Z,6.70
2019-04-01T02:18:20.815Z,6.70
2019-04-01T02:20:51.467Z,6.70
2019-04-01T02:23:22.913Z,6.70
2019-04-01T02:25:53.476Z,6.70
2019-04-01T02:28:24.423Z,6.70
2019-04-01T02:30:55.082Z,6.70
2019-04-01T02:33:25.779Z,6.70
2019-04-01T02:35:56.389Z,6.70
2019-04-01T02:38:26.987Z,6.70
2019-04-01T02:40:57.578Z,6.60
2019-04-01T02:43:28.204Z,6.60
2019-04-01T02:45:58.856Z,6.60
2019-04-01T02:48:29.576Z,6.60
2019-04-01T02:51:00.247Z,6.60
2019-04-01T02:53:30.775Z,6.60
2019-04-01T02:56:01.505Z,6.60
2019-04-01T02:58:32.528Z,6.60
2019-04-01T03:01:03.207Z,6.60
2019-04-01T03:03:34.020Z,6.60
2019-04-01T03:06:04.543Z,6.60
2019-04-01T03:08:35.649Z,6.60
2019-04-01T03:11:10.466Z,6.60
2019-04-01T03:13:38.634Z,6.50
2019-04-01T03:16:09.774Z,6.50
2019-04-01T03:18:40.469Z,6.60
2019-04-01T03:21:11.136Z,6.60
2019-04-01T03:23:41.751Z,6.60
2019-04-01T03:26:12.312Z,6.60
2019-04-01T03:28:42.952Z,6.60
2019-04-01T03:31:13.949Z,6.60
2019-04-01T03:33:44.699Z,6.50
2019-04-01T03:36:15.443Z,6.50
2019-04-01T03:38:46.050Z,6.50
2019-04-01T03:41:16.797Z,6.50
2019-04-01T03:43:47.462Z,6.50
2019-04-01T03:46:18.037Z,6.50
2019-04-01T03:48:48.611Z,6.40
2019-04-01T03:51:19.530Z,6.40
2019-04-01T03:53:50.241Z,6.50
2019-04-01T03:56:20.997Z,6.40
2019-04-01T03:58:51.533Z,6.40
2019-04-01T04:01:22.500Z,6.40
2019-04-01T04:03:53.225Z,6.40
2019-04-01T04:06:23.885Z,6.40
2019-04-01T04:08:54.831Z,6.40
2019-04-01T04:11:25.585Z,6.40
2019-04-01T04:13:56.577Z,6.40
2019-04-01T04:16:27.199Z,6.40
2019-04-01T04:18:57.910Z,6.40
2019-04-01T04:21:28.523Z,6.30
2019-04-01T04:23:59.140Z,6.30
2019-04-01T04:26:29.843Z,6.30
2019-04-01T04:29:00.912Z,6.30
2019-04-01T04:31:31.462Z,6.30
2019-04-01T04:34:02.229Z,6.30
2019-04-01T04:36:32.806Z,6.30
2019-04-01T04:39:05.680Z,6.40
2019-04-01T04:41:36.398Z,6.40
2019-04-01T04:44:07.080Z,6.40
2019-04-01T04:46:37.749Z,6.30
2019-04-01T04:49:08.462Z,6.40
2019-04-01T04:51:39.159Z,6.30
2019-04-01T04:54:09.870Z,6.30
2019-04-01T04:56:40.513Z,6.30
2019-04-01T04:59:11.190Z,6.30
2019-04-01T05:01:41.923Z,6.40
2019-04-01T05:04:12.671Z,6.40
2019-04-01T05:06:44.741Z,6.40
2019-04-01T05:09:15.799Z,6.40
2019-04-01T05:11:46.421Z,6.50
2019-04-01T05:14:17.168Z,6.50
2019-04-01T05:16:47.762Z,6.60
2019-04-01T05:19:18.613Z,6.60
2019-04-01T05:21:49.752Z,6.70
2019-04-01T05:24:20.700Z,6.80
2019-04-01T05:26:53.040Z,7.00
2019-04-01T05:29:26.054Z,7.30
2019-04-01T05:31:59.466Z,7.50
2019-04-01T05:34:30.764Z,7.80
2019-04-01T05:37:01.317Z,8.10
2019-04-01T05:39:32.936Z,8.60
2019-04-01T05:42:04.319Z,9.10
2019-04-01T05:44:34.976Z,9.60
2019-04-01T05:47:05.626Z,10.00
2019-04-01T05:49:36.331Z,10.60
2019-04-01T05:52:07.045Z,11.10
2019-04-01T05:54:37.900Z,11.60
2019-04-01T05:57:08.594Z,12.30
2019-04-01T05:59:39.302Z,12.50
2019-04-01T06:02:09.930Z,12.60
2019-04-01T06:04:40.482Z,13.30
2019-04-01T06:07:11.482Z,14.10
2019-04-01T06:09:42.102Z,14.70
2019-04-01T06:12:12.662Z,14.80
2019-04-01T06:14:43.546Z,15.20
2019-04-01T06:17:14.449Z,15.80
2019-04-01T06:19:46.589Z,16.80
2019-04-01T06:22:17.217Z,17.40
2019-04-01T06:24:48.408Z,17.90
2019-04-01T06:27:19.130Z,18.60
2019-04-01T06:29:49.802Z,19.40
2019-04-01T06:32:20.580Z,20.20
2019-04-01T06:34:53.088Z,20.90
2019-04-01T06:37:24.047Z,21.60
2019-04-01T06:39:54.775Z,22.30
2019-04-01T06:42:25.487Z,22.90
2019-04-01T06:44:56.107Z,23.10
2019-04-01T06:47:26.848Z,22.70
2019-04-01T06:49:57.408Z,22.20
2019-04-01T06:52:28.538Z,20.90
2019-04-01T06:54:59.111Z,19.20
2019-04-01T06:57:29.767Z,17.60
2019-04-01T07:00:00.432Z,16.50
2019-04-01T07:02:31.229Z,15.60
2019-04-01T07:05:01.805Z,15.10
2019-04-01T07:07:44.403Z,15.40
2019-04-01T07:10:15.298Z,17.40
2019-04-01T07:12:45.964Z,20.10
2019-04-01T07:15:16.824Z,22.20
2019-04-01T07:17:47.881Z,23.70
2019-04-01T07:20:18.817Z,25.20
2019-04-01T07:22:49.784Z,26.20
2019-04-01T07:25:20.459Z,27.30
2019-04-01T07:27:51.128Z,28.30
2019-04-01T07:30:21.789Z,29.30
2019-04-01T07:32:52.458Z,30.00
2019-04-01T07:35:23.256Z,30.80
2019-04-01T07:37:54.015Z,31.20
2019-04-01T07:40:24.665Z,31.70
2019-04-01T07:42:55.559Z,32.10
2019-04-01T07:45:27.352Z,32.50
2019-04-01T07:47:58.774Z,32.80
2019-04-01T07:50:30.642Z,33.00
2019-04-01T07:53:05.118Z,33.20
2019-04-01T07:55:37.349Z,33.40
2019-04-01T07:58:08.821Z,33.70
2019-04-01T08:00:40.397Z,34.10
2019-04-01T08:03:11.350Z,34.40
2019-04-01T08:05:42.171Z,34.70
2019-04-01T08:08:12.798Z,35.10
2019-04-01T08:10:43.911Z,35.40
2019-04-01T08:13:14.569Z,35.70
2019-04-01T08:15:45.209Z,35.90
2019-04-01T08:18:16.210Z,36.20
2019-04-01T08:20:46.946Z,36.60
2019-04-01T08:23:17.665Z,37.00
2019-04-01T08:25:48.863Z,37.40
2019-04-01T08:28:19.596Z,37.90
2019-04-01T08:30:50.205Z,38.00
2019-04-01T08:33:21.048Z,38.00
2019-04-01T08:35:51.817Z,38.00
2019-04-01T08:38:22.586Z,38.20
2019-04-01T08:40:53.297Z,38.40
2019-04-01T08:43:24.343Z,38.40
2019-04-01T08:45:55.078Z,38.60
2019-04-01T08:48:27.253Z,38.70
2019-04-01T08:50:58.036Z,38.90
2019-04-01T08:53:28.750Z,39.20
2019-04-01T08:56:23.294Z,39.00
2019-04-01T08:58:54.075Z,39.10
2019-04-01T09:01:35.124Z,39.60
2019-04-01T09:03:57.363Z,39.90
2019-04-01T09:06:31.211Z,40.10
2019-04-01T09:09:01.159Z,40.20
2019-04-01T09:11:32.922Z,39.90
2019-04-01T09:14:03.890Z,39.90
2019-04-01T09:16:36.089Z,39.70
2019-04-01T09:19:06.869Z,39.90
2019-04-01T09:21:37.617Z,39.80
2019-04-01T09:24:08.243Z,39.50
2019-04-01T09:26:38.974Z,39.20
2019-04-01T09:29:09.964Z,39.50
2019-04-01T09:31:40.559Z,39.70
2019-04-01T09:34:11.256Z,39.60
2019-04-01T09:36:42.305Z,39.20
2019-04-01T09:39:12.995Z,39.10
2019-04-01T09:41:43.865Z,38.80
2019-04-01T09:44:14.607Z,38.80
2019-04-01T09:46:48.575Z,38.60
2019-04-01T09:49:17.512Z,38.60
2019-04-01T09:51:49.234Z,38.90
2019-04-01T09:54:20.361Z,39.20
2019-04-01T09:56:50.991Z,39.10
2019-04-01T09:59:21.757Z,38.90
2019-04-01T10:01:53.847Z,38.90
2019-04-01T10:04:24.375Z,38.50
2019-04-01T10:06:55.120Z,38.40
2019-04-01T10:09:25.892Z,38.10
2019-04-01T10:11:56.722Z,37.60
2019-04-01T10:14:27.552Z,37.20
2019-04-01T10:16:58.325Z,36.60
2019-04-01T10:19:28.925Z,36.30
2019-04-01T10:22:01.630Z,36.10
2019-04-01T10:24:32.746Z,35.90
2019-04-01T10:27:06.823Z,35.60
2019-04-01T10:29:37.895Z,35.50
2019-04-01T10:32:08.918Z,35.20
2019-04-01T10:34:39.806Z,34.80
2019-04-01T10:37:10.532Z,34.30
2019-04-01T10:39:41.398Z,33.50
2019-04-01T10:42:12.480Z,32.60
2019-04-01T10:44:43.125Z,31.90
2019-04-01T10:47:14.307Z,31.00
2019-04-01T10:49:45.040Z,29.70
2019-04-01T10:52:15.671Z,28.70
2019-04-01T10:54:47.017Z,27.80
2019-04-01T10:57:17.902Z,27.00
2019-04-01T10:59:48.599Z,26.30
2019-04-01T11:02:19.349Z,25.80
2019-04-01T11:04:50.170Z,25.30
2019-04-01T11:07:20.842Z,24.80
2019-04-01T11:09:51.902Z,24.50
2019-04-01T11:12:22.617Z,24.10
2019-04-01T11:14:53.401Z,23.90
2019-04-01T11:17:24.572Z,23.80
2019-04-01T11:19:55.258Z,23.70
2019-04-01T11:22:26.103Z,23.40
2019-04-01T11:24:56.834Z,23.10
2019-04-01T11:27:27.575Z,22.80
2019-04-01T11:29:58.304Z,22.60
2019-04-01T11:32:29.051Z,22.40
2019-04-01T11:34:59.756Z,22.20
2019-04-01T11:37:30.623Z,21.90
2019-04-01T11:40:01.432Z,21.70
2019-04-01T11:42:32.280Z,21.50
2019-04-01T11:45:05.723Z,21.40
2019-04-01T11:47:35.805Z,21.10
2019-04-01T11:50:06.800Z,20.90
2019-04-01T11:52:38.231Z,20.80
2019-04-01T11:55:09.757Z,20.80
2019-04-01T11:57:41.000Z,20.80
2019-04-01T12:00:16.022Z,20.70
2019-04-01T12:02:47.082Z,20.60
2019-04-01T12:05:17.929Z,20.60
2019-04-01T12:07:48.986Z,20.60
2019-04-01T12:10:19.569Z,20.40
2019-04-01T12:12:50.126Z,20.20
2019-04-01T12:15:20.803Z,20.00
2019-04-01T12:17:51.716Z,19.90
2019-04-01T12:20:22.672Z,19.90
2019-04-01T12:22:53.474Z,19.60
2019-04-01T12:25:24.492Z,19.40
2019-04-01T12:27:56.166Z,19.30
2019-04-01T12:30:27.131Z,19.20
2019-04-01T12:32:58.217Z,19.10
2019-04-01T12:35:29.098Z,19.00
2019-04-01T12:38:00.329Z,18.90
2019-04-01T12:40:30.989Z,18.90
2019-04-01T12:43:01.775Z,18.80
2019-04-01T12:45:32.453Z,18.70
2019-04-01T12:48:03.143Z,18.80
2019-04-01T12:50:33.836Z,18.80
2019-04-01T12:53:04.546Z,18.80
2019-04-01T12:55:35.270Z,18.80
2019-04-01T12:58:06.222Z,18.70
2019-04-01T13:00:36.797Z,18.60
2019-04-01T13:03:07.679Z,18.50
2019-04-01T13:05:38.368Z,18.40
2019-04-01T13:08:09.078Z,18.30
2019-04-01T13:10:39.679Z,18.20
2019-04-01T13:13:12.945Z,18.20
2019-04-01T13:15:43.243Z,18.20
2019-04-01T13:18:13.830Z,18.20
2019-04-01T13:20:44.708Z,18.20
2019-04-01T13:23:15.606Z,18.20
2019-04-01T13:25:46.432Z,18.30
2019-04-01T13:28:17.200Z,18.30
2019-04-01T13:30:48.303Z,18.30
2019-04-01T13:33:19.149Z,18.30
2019-04-01T13:35:49.975Z,18.30
2019-04-01T13:38:21.777Z,18.30
2019-04-01T13:40:52.435Z,18.30
2019-04-01T13:43:24.386Z,18.30
2019-04-01T13:45:55.040Z,18.30
2019-04-01T13:48:25.958Z,18.30
2019-04-01T13:50:56.801Z,18.30
2019-04-01T13:53:28.589Z,18.40
2019-04-01T13:55:59.517Z,18.30
2019-04-01T13:58:30.131Z,18.30
2019-04-01T14:01:00.793Z,18.30
2019-04-01T14:03:34.631Z,18.30
2019-04-01T14:06:05.603Z,18.30
2019-04-01T14:08:36.280Z,18.30
2019-04-01T14:11:07.150Z,18.40
2019-04-01T14:13:37.838Z,18.40
2019-04-01T14:16:09.254Z,18.30
2019-04-01T14:18:40.279Z,18.30
2019-04-01T14:21:16.563Z,18.20
2019-04-01T14:23:44.677Z,18.10
2019-04-01T14:26:15.431Z,17.90
2019-04-01T14:28:46.190Z,17.80
2019-04-01T14:31:19.280Z,17.70
2019-04-01T14:33:50.025Z,17.80
2019-04-01T14:36:20.674Z,17.80
2019-04-01T14:38:51.346Z,17.80
2019-04-01T14:41:22.188Z,17.70
2019-04-01T14:43:55.298Z,17.50
2019-04-01T14:46:26.143Z,17.40
2019-04-01T14:49:00.157Z,17.30
2019-04-01T14:51:29.558Z,17.20
2019-04-01T14:54:00.296Z,17.10
2019-04-01T14:56:31.023Z,17.20
2019-04-01T14:59:01.722Z,17.20
2019-04-01T15:01:32.841Z,17.20
2019-04-01T15:04:03.700Z,17.20
2019-04-01T15:06:37.135Z,17.20
2019-04-01T15:09:09.035Z,17.20
2019-04-01T15:11:42.055Z,17.20
2019-04-01T15:14:13.257Z,17.10
2019-04-01T15:16:44.333Z,17.00
2019-04-01T15:19:15.606Z,16.90
2019-04-01T15:21:47.490Z,16.90
2019-04-01T15:24:18.635Z,16.90
2019-04-01T15:26:49.370Z,16.90
2019-04-01T15:29:20.063Z,16.90
2019-04-01T15:31:51.206Z,16.90
2019-04-01T15:34:21.902Z,16.80
2019-04-01T15:36:52.998Z,16.80
2019-04-01T15:39:23.985Z,16.80
2019-04-01T15:41:54.864Z,16.70
2019-04-01T15:44:29.114Z,16.70
2019-04-01T15:46:57.959Z,16.60
2019-04-01T15:49:28.671Z,16.60
2019-04-01T15:51:59.472Z,16.50
2019-04-01T15:54:30.171Z,16.40
2019-04-01T15:57:00.752Z,16.40
2019-04-01T15:59:31.493Z,16.40
2019-04-01T16:02:02.144Z,16.30
2019-04-01T16:04:32.808Z,16.30
2019-04-01T16:07:03.552Z,16.20
2019-04-01T16:09:34.210Z,16.20
2019-04-01T16:12:05.140Z,16.20
2019-04-01T16:14:36.079Z,16.10
2019-04-01T16:17:07.182Z,16.10
2019-04-01T16:19:38.525Z,16.00
2019-04-01T16:22:09.687Z,15.90
2019-04-01T16:24:40.471Z,15.90
2019-04-01T16:27:12.561Z,15.90
2019-04-01T16:29:43.225Z,15.80
2019-04-01T16:32:13.859Z,15.70
2019-04-01T16:34:44.555Z,15.70
2019-04-01T16:37:15.136Z,15.60
2019-04-01T16:39:45.865Z,15.60
2019-04-01T16:42:16.861Z,15.50
2019-04-01T16:44:47.634Z,15.50
2019-04-01T16:47:18.661Z,15.40
2019-04-01T16:49:49.470Z,15.30
2019-04-01T16:52:20.111Z,15.30
2019-04-01T16:55:01.833Z,15.20
2019-04-01T16:57:32.493Z,15.10
2019-04-01T17:00:03.190Z,15.10
2019-04-01T17:02:33.940Z,15.00
2019-04-01T17:05:05.421Z,14.90
2019-04-01T17:07:36.139Z,14.90
2019-04-01T17:10:07.221Z,14.80
2019-04-01T17:12:37.863Z,14.80
2019-04-01T17:15:09.398Z,14.80
2019-04-01T17:17:40.313Z,14.70
2019-04-01T17:20:11.181Z,14.60
2019-04-01T17:22:42.162Z,14.60
2019-04-01T17:25:12.740Z,14.50
2019-04-01T17:27:43.336Z,14.40
2019-04-01T17:30:14.723Z,14.40
2019-04-01T17:32:45.403Z,14.30
2019-04-01T17:35:16.511Z,14.20
2019-04-01T17:37:47.271Z,14.20
2019-04-01T17:40:18.157Z,14.10
2019-04-01T17:42:48.902Z,14.00
2019-04-01T17:45:34.954Z,14.00
2019-04-01T17:48:06.857Z,13.90
2019-04-01T17:50:37.668Z,13.80
2019-04-01T17:53:08.911Z,13.70
2019-04-01T17:55:39.642Z,13.70
2019-04-01T17:58:10.481Z,13.60
2019-04-01T18:00:48.264Z,13.50
2019-04-01T18:03:19.024Z,13.50
2019-04-01T18:05:49.884Z,13.40
2019-04-01T18:08:21.033Z,13.30
2019-04-01T18:10:51.812Z,13.30
2019-04-01T18:13:22.589Z,13.30
2019-04-01T18:15:53.231Z,13.20
2019-04-01T18:18:27.255Z,13.20
2019-04-01T18:20:56.324Z,13.20
2019-04-01T18:23:27.063Z,13.20
2019-04-01T18:25:57.758Z,13.10
2019-04-01T18:28:28.577Z,13.10
2019-04-01T18:30:59.298Z,13.00
2019-04-01T18:33:30.346Z,13.00
2019-04-01T18:36:01.405Z,13.00
2019-04-01T18:38:34.055Z,12.90
2019-04-01T18:41:05.220Z,12.90
2019-04-01T18:43:36.470Z,12.90
2019-04-01T18:46:07.232Z,12.90
2019-04-01T18:48:38.005Z,12.80
2019-04-01T18:51:09.134Z,12.80
2019-04-01T18:53:39.962Z,12.80
2019-04-01T18:56:10.604Z,12.80
2019-04-01T18:58:41.321Z,12.80
2019-04-01T19:01:12.105Z,12.70
2019-04-01T19:03:43.085Z,12.70
2019-04-01T19:06:13.844Z,12.70
2019-04-01T19:08:44.615Z,12.70
2019-04-01T19:11:15.417Z,12.60
2019-04-01T19:13:46.225Z,12.60
2019-04-01T19:16:17.250Z,12.50
2019-04-01T19:18:48.291Z,12.50
2019-04-01T19:21:21.431Z,12.50
2019-04-01T19:23:52.042Z,12.40
2019-04-01T19:26:23.426Z,12.30
2019-04-01T19:28:58.094Z,12.30
2019-04-01T19:31:27.338Z,12.20
2019-04-01T19:33:57.979Z,12.10
2019-04-01T19:36:29.100Z,12.10
2019-04-01T19:39:00.772Z,12.00
2019-04-01T19:41:33.140Z,12.00
2019-04-01T19:44:03.926Z,11.90
2019-04-01T19:46:34.639Z,11.90
2019-04-01T19:49:05.755Z,11.90
2019-04-01T19:51:36.526Z,11.80
2019-04-01T19:54:10.344Z,11.80
2019-04-01T19:56:40.952Z,11.80
2019-04-01T19:59:11.585Z,11.70
2019-04-01T20:01:42.301Z,11.70
2019-04-01T20:04:13.056Z,11.70
2019-04-01T20:06:43.736Z,11.60
2019-04-01T20:09:14.455Z,11.60
2019-04-01T20:11:45.237Z,11.60
2019-04-01T20:14:16.396Z,11.60
2019-04-01T20:16:48.920Z,11.60
2019-04-01T20:19:20.472Z,11.50
2019-04-01T20:21:51.192Z,11.50
2019-04-01T20:24:22.304Z,11.50
2019-04-01T20:26:53.075Z,11.50
2019-04-01T20:29:23.919Z,11.50
2019-04-01T20:31:54.573Z,11.40
2019-04-01T20:34:25.855Z,11.40
2019-04-01T20:36:57.770Z,11.50
2019-04-01T20:39:29.068Z,11.50
2019-04-01T20:42:00.855Z,11.50
2019-04-01T20:44:32.539Z,11.50
2019-04-01T20:47:03.643Z,11.50
2019-04-01T20:49:35.082Z,11.40
2019-04-01T20:52:06.164Z,11.40
2019-04-01T20:54:45.155Z,11.40
2019-04-01T20:57:17.172Z,11.30
2019-04-01T20:59:49.199Z,11.30
2019-04-01T21:02:19.895Z,11.30
2019-04-01T21:04:51.085Z,11.30
2019-04-01T21:07:23.030Z,11.30
2019-04-01T21:09:55.179Z,11.30
2019-04-01T21:12:26.012Z,11.30
2019-04-01T21:14:56.693Z,11.30
2019-04-01T21:17:27.257Z,11.20
2019-04-01T21:19:58.916Z,11.20
2019-04-01T21:22:29.512Z,11.20
2019-04-01T21:25:00.145Z,11.10
2019-04-01T21:27:30.764Z,11.10
2019-04-01T21:30:01.726Z,11.00
2019-04-01T21:32:32.457Z,11.00
2019-04-01T21:35:03.162Z,11.00
2019-04-01T21:37:34.199Z,11.00
2019-04-01T21:40:06.806Z,10.90
2019-04-01T21:42:37.546Z,10.90
2019-04-01T21:45:08.712Z,10.90
2019-04-01T21:47:40.205Z,10.90
2019-04-01T21:50:12.188Z,10.90
2019-04-01T21:52:42.738Z,10.80
2019-04-01T21:55:13.588Z,10.80
2019-04-01T21:57:44.357Z,10.70
2019-04-01T22:00:19.689Z,10.70
2019-04-01T22:02:52.415Z,10.70
2019-04-01T22:05:23.006Z,10.70
2019-04-01T22:07:53.742Z,10.60
2019-04-01T22:10:24.299Z,10.60
2019-04-01T22:12:56.253Z,10.50
2019-04-01T22:15:27.632Z,10.50
2019-04-01T22:17:58.398Z,10.50
2019-04-01T22:20:28.926Z,10.40
2019-04-01T22:22:59.724Z,10.40
2019-04-01T22:25:30.442Z,10.40
2019-04-01T22:28:02.241Z,10.30
2019-04-01T22:30:32.861Z,10.20
2019-04-01T22:33:03.634Z,10.20
2019-04-01T22:35:39.056Z,10.20
2019-04-01T22:38:07.321Z,10.10
2019-04-01T22:40:38.270Z,10.10
2019-04-01T22:43:08.952Z,10.10
2019-04-01T22:45:39.870Z,10.00
2019-04-01T22:48:10.573Z,9.90
2019-04-01T22:50:41.198Z,9.90
2019-04-01T22:53:11.902Z,9.90
2019-04-01T22:55:42.589Z,9.80
2019-04-01T22:58:13.483Z,9.70
2019-04-01T23:00:44.151Z,9.70
2019-04-01T23:03:14.779Z,9.70
2019-04-01T23:05:45.493Z,9.70
2019-04-01T23:08:16.163Z,9.70
2019-04-01T23:10:46.934Z,9.70
2019-04-01T23:13:17.643Z,9.60
2019-04-01T23:15:48.355Z,9.60
2019-04-01T23:18:19.059Z,9.60
2019-04-01T23:20:50.704Z,9.60
2019-04-01T23:23:21.689Z,9.50
2019-04-01T23:25:52.610Z,9.50
2019-04-01T23:28:24.206Z,9.50
2019-04-01T23:30:55.166Z,9.50
2019-04-01T23:33:25.796Z,9.50
2019-04-01T23:35:56.752Z,9.40
2019-04-01T23:38:27.759Z,9.40
2019-04-01T23:40:58.416Z,9.30
2019-04-01T23:43:29.094Z,9.20
2019-04-01T23:45:59.873Z,9.20
2019-04-01T23:48:30.503Z,9.10
2019-04-01T23:51:01.290Z,9.10
2019-04-01T23:53:31.969Z,9.10
2019-04-01T23:56:02.638Z,9.10
2019-04-01T23:58:33.335Z,9.00
